createdAt,value
2022-12-08T08:32:41.773Z,26.67
2022-12-08T08:37:51.021Z,24.10
2022-12-08T08:40:18.681Z,24.05
2022-12-08T08:46:49.143Z,22.17
2022-12-08T08:49:16.549Z,19.50
2022-12-08T08:51:43.966Z,21.08
2022-12-08T08:54:11.462Z,20.85
2022-12-08T08:56:38.791Z,22.30
2022-12-08T08:59:06.196Z,16.27
2022-12-08T09:01:34.399Z,23.30
2022-12-08T09:04:02.021Z,16.35
2022-12-08T09:06:29.603Z,16.45
2022-12-08T09:08:57.290Z,17.55
2022-12-08T09:11:24.673Z,16.63
2022-12-08T09:13:54.210Z,16.35
2022-12-08T09:16:22.886Z,17.38
2022-12-08T09:18:50.549Z,16.65
2022-12-08T09:21:24.219Z,25.80
2022-12-08T09:23:57.549Z,19.23
2022-12-08T09:26:27.302Z,18.58
2022-12-08T09:28:56.954Z,15.50
2022-12-08T09:31:25.289Z,16.07
2022-12-08T09:33:52.822Z,18.45
2022-12-08T09:36:21.595Z,18.42
2022-12-08T09:38:51.069Z,21.10
2022-12-08T09:41:43.292Z,18.40
2022-12-08T09:45:02.530Z,18.30
2022-12-08T09:47:44.174Z,19.90
2022-12-08T09:50:31.046Z,26.35
2022-12-08T09:54:07.937Z,18.92
2022-12-08T09:56:37.813Z,22.40
2022-12-08T09:59:32.946Z,20.42
2022-12-08T10:02:09.680Z,25.85
2022-12-08T10:04:38.820Z,20.17
2022-12-08T10:07:54.957Z,24.17
2022-12-08T10:10:57.345Z,17.80
2022-12-08T10:14:14.450Z,25.10
2022-12-08T10:16:48.556Z,19.55
2022-12-08T10:19:25.420Z,21.80
2022-12-08T10:21:54.407Z,21.23
2022-12-08T10:24:41.723Z,23.55
2022-12-08T10:27:13.468Z,20.52
2022-12-08T10:29:41.314Z,18.80
2022-12-08T10:32:24.429Z,27.52
2022-12-08T10:35:12.258Z,21.77
2022-12-08T10:37:40.989Z,20.70
2022-12-08T10:40:18.302Z,21.63
2022-12-08T10:42:56.406Z,18.25
2022-12-08T10:45:37.299Z,21.02
2022-12-08T10:48:27.842Z,21.15
2022-12-08T10:50:59.221Z,19.92
2022-12-08T10:53:34.162Z,17.35
2022-12-08T10:56:04.420Z,21.67
2022-12-08T10:58:44.918Z,22.45
2022-12-08T11:01:25.543Z,25.95
2022-12-08T11:06:37.649Z,29.63
2022-12-08T11:09:18.110Z,34.60
2022-12-08T11:11:55.326Z,34.25
2022-12-08T11:14:42.612Z,35.72
2022-12-08T11:17:21.638Z,37.08
2022-12-08T11:20:10.788Z,33.65
2022-12-08T11:22:53.186Z,29.30
2022-12-08T11:25:28.508Z,35.00
2022-12-08T11:28:01.781Z,35.58
2022-12-08T11:30:47.729Z,32.58
2022-12-08T11:33:29.153Z,29.95
2022-12-08T11:36:09.104Z,30.30
2022-12-08T11:38:47.213Z,27.58
2022-12-08T11:41:26.168Z,37.05
2022-12-08T11:44:41.037Z,26.67
2022-12-08T11:47:28.850Z,24.42
2022-12-08T11:50:32.600Z,27.48
2022-12-08T11:53:01.687Z,36.05
2022-12-08T11:55:55.148Z,27.83
2022-12-08T11:58:56.426Z,31.23
2022-12-08T12:01:26.812Z,26.60
2022-12-08T12:05:01.072Z,32.65
2022-12-08T12:08:03.754Z,26.42
2022-12-08T12:10:43.110Z,29.58
2022-12-08T12:13:58.387Z,30.80
2022-12-08T12:16:55.521Z,31.70
2022-12-08T12:19:24.330Z,30.30
2022-12-08T12:22:15.652Z,32.22
2022-12-08T12:24:49.237Z,30.02
2022-12-08T12:27:29.765Z,30.00
2022-12-08T12:30:04.177Z,29.08
2022-12-08T12:32:59.914Z,30.33
2022-12-08T12:35:47.941Z,33.10
2022-12-08T12:39:08.612Z,31.90
2022-12-08T12:41:47.850Z,34.08
2022-12-08T12:44:15.058Z,31.50
2022-12-08T12:46:51.108Z,34.28
2022-12-08T12:49:40.154Z,28.05
2022-12-08T12:52:10.182Z,30.63
2022-12-08T12:54:42.270Z,34.35
2022-12-08T12:57:09.460Z,32.40
2022-12-08T13:00:05.368Z,30.17
2022-12-08T13:02:46.060Z,35.38
2022-12-08T13:08:07.066Z,46.83
2022-12-08T13:10:48.622Z,32.90
2022-12-08T13:13:19.031Z,35.03
2022-12-08T13:16:24.829Z,33.97
2022-12-08T13:19:02.480Z,37.95
2022-12-08T13:21:39.030Z,38.53
2022-12-08T13:24:24.364Z,41.55
2022-12-08T13:27:11.496Z,43.75
2022-12-08T13:29:40.113Z,51.47
2022-12-08T13:32:10.323Z,44.28
2022-12-08T13:35:11.882Z,45.97
2022-12-08T13:37:54.862Z,36.50
2022-12-08T13:40:30.266Z,39.63
2022-12-08T13:43:55.630Z,36.20
2022-12-08T13:47:09.806Z,41.78
2022-12-08T13:51:07.037Z,41.95
2022-12-08T13:56:59.645Z,37.65
2022-12-08T13:58:47.417Z,40.95
2022-12-08T14:01:25.022Z,39.10
2022-12-08T14:04:34.127Z,39.97
2022-12-08T14:06:59.404Z,34.33
2022-12-08T14:09:36.414Z,38.20
2022-12-08T14:12:26.464Z,34.17
2022-12-08T14:15:04.395Z,37.30
2022-12-08T14:17:33.793Z,35.90
2022-12-08T14:20:57.920Z,36.90
2022-12-08T14:23:22.847Z,38.40
2022-12-08T14:25:50.307Z,44.17
2022-12-08T14:28:18.050Z,40.33
2022-12-08T14:30:45.571Z,43.17
2022-12-08T14:33:17.514Z,43.10
2022-12-08T14:35:54.931Z,42.63
2022-12-08T14:38:26.051Z,48.50
2022-12-08T14:41:08.753Z,35.00
2022-12-08T14:43:36.496Z,40.08
2022-12-08T14:46:22.963Z,37.65
2022-12-08T14:48:50.516Z,44.30
2022-12-08T14:51:20.937Z,37.78
2022-12-08T14:54:13.375Z,38.33
2022-12-08T14:56:56.097Z,37.20
2022-12-08T14:59:39.148Z,32.55
2022-12-08T15:02:27.128Z,39.88
2022-12-08T15:05:16.011Z,36.40
2022-12-08T15:07:54.016Z,35.03
2022-12-08T15:10:31.967Z,35.75
2022-12-08T15:13:10.345Z,33.60
2022-12-08T15:15:57.767Z,35.47
2022-12-08T15:18:41.164Z,43.35
2022-12-08T15:21:13.015Z,38.45
2022-12-08T15:23:50.375Z,36.50
2022-12-08T15:26:27.412Z,37.30
2022-12-08T15:28:55.830Z,41.92
2022-12-08T15:31:23.331Z,41.17
2022-12-08T15:33:50.892Z,43.60
2022-12-08T15:36:18.220Z,42.97
2022-12-08T15:38:45.632Z,40.08
2022-12-08T15:41:15.212Z,41.72
2022-12-08T15:43:43.034Z,31.25
2022-12-08T15:46:10.555Z,41.63
2022-12-08T15:48:38.450Z,39.45
2022-12-08T15:51:05.859Z,35.13
2022-12-08T15:53:33.290Z,36.58
2022-12-08T15:58:55.609Z,38.95
2022-12-08T16:01:24.886Z,39.92
2022-12-08T16:09:47.899Z,38.85
2022-12-08T16:15:59.017Z,37.13
2022-12-08T16:18:34.484Z,38.85
2022-12-08T16:21:22.857Z,39.63
2022-12-08T16:23:49.934Z,38.00
2022-12-08T16:29:20.781Z,41.65
2022-12-08T16:31:48.474Z,45.50
2022-12-08T16:34:16.224Z,44.80
2022-12-08T16:36:43.665Z,39.33
2022-12-08T16:39:14.622Z,42.45
2022-12-08T16:42:02.346Z,43.17
2022-12-08T16:44:30.051Z,41.90
2022-12-08T16:46:57.523Z,38.05
2022-12-08T16:49:25.067Z,40.90
2022-12-08T16:51:52.524Z,37.88
2022-12-08T16:54:19.910Z,38.65
2022-12-08T16:56:47.326Z,39.17
2022-12-08T16:59:14.756Z,41.83
2022-12-08T17:01:42.164Z,42.25
2022-12-08T17:06:58.178Z,39.22
2022-12-08T17:09:28.546Z,42.63
2022-12-08T17:12:01.824Z,36.00
2022-12-08T17:14:35.501Z,40.53
2022-12-08T17:17:03.018Z,42.92
2022-12-08T17:19:30.441Z,41.40
2022-12-08T17:21:57.881Z,38.30
2022-12-08T17:24:29.027Z,37.70
2022-12-08T17:26:58.817Z,37.22
2022-12-08T17:29:26.236Z,44.35
2022-12-08T17:31:53.729Z,43.72
2022-12-08T17:34:21.208Z,38.28
2022-12-08T17:36:48.619Z,42.38
2022-12-08T17:39:18.764Z,36.75
2022-12-08T17:41:47.938Z,37.90
2022-12-08T17:44:19.431Z,38.60
2022-12-08T17:46:52.610Z,41.35
2022-12-08T17:49:29.629Z,53.30
2022-12-08T17:52:06.972Z,35.25
2022-12-08T17:54:35.867Z,38.88
2022-12-08T17:57:03.995Z,41.63
2022-12-08T17:59:32.020Z,39.40
2022-12-08T18:01:59.873Z,40.63
2022-12-08T18:04:29.223Z,37.30
2022-12-08T18:06:59.350Z,42.70
2022-12-08T18:09:26.847Z,40.30
2022-12-08T18:11:54.320Z,44.50
2022-12-08T18:14:21.924Z,46.25
2022-12-08T18:16:49.550Z,43.13
2022-12-08T18:19:17.106Z,45.95
2022-12-08T18:21:44.949Z,41.50
2022-12-08T18:24:23.450Z,46.22
2022-12-08T18:26:52.595Z,45.67
2022-12-08T18:29:22.414Z,57.67
2022-12-08T18:31:51.523Z,50.50
2022-12-08T18:34:19.132Z,51.90
2022-12-08T18:36:47.121Z,48.03
2022-12-08T18:39:30.562Z,46.60
2022-12-08T18:42:02.603Z,53.97
2022-12-08T18:44:29.978Z,48.92
2022-12-08T18:46:58.207Z,49.10
2022-12-08T18:49:26.470Z,44.28
2022-12-08T18:51:53.892Z,44.97
2022-12-08T18:54:27.661Z,40.20
2022-12-08T18:57:06.400Z,39.88
2022-12-08T18:59:33.903Z,41.75
2022-12-08T19:02:01.379Z,37.25
2022-12-08T19:04:29.529Z,41.40
2022-12-08T19:06:58.102Z,41.05
2022-12-08T19:09:26.920Z,38.45
2022-12-08T19:11:55.527Z,45.75
2022-12-08T19:14:28.114Z,47.28
2022-12-08T19:16:59.756Z,48.63
2022-12-08T19:19:28.256Z,48.05
2022-12-08T19:21:56.379Z,49.55
2022-12-08T19:24:25.261Z,51.72
2022-12-08T19:26:53.374Z,48.10
2022-12-08T19:29:20.932Z,47.83
2022-12-08T19:31:48.382Z,42.78
2022-12-08T19:34:15.850Z,44.88
2022-12-08T19:36:43.624Z,45.30
2022-12-08T19:40:01.023Z,37.70
2022-12-08T19:42:46.919Z,39.35
2022-12-08T19:45:22.110Z,37.83
2022-12-08T19:47:50.611Z,41.08
2022-12-08T19:50:36.683Z,44.08
2022-12-08T19:53:15.553Z,45.75
2022-12-08T19:55:44.374Z,52.25
2022-12-08T19:58:11.895Z,49.63
2022-12-08T20:00:41.280Z,51.00
2022-12-08T20:03:09.041Z,48.55
2022-12-08T20:05:37.330Z,48.63
2022-12-08T20:08:05.184Z,43.22
2022-12-08T20:10:38.825Z,40.58
2022-12-08T20:13:27.251Z,40.55
2022-12-08T20:15:55.064Z,44.28
2022-12-08T20:18:22.688Z,46.33
2022-12-08T20:20:50.297Z,47.28
2022-12-08T20:23:17.969Z,47.22
2022-12-08T20:25:47.759Z,51.40
2022-12-08T20:28:15.601Z,43.67
2022-12-08T20:30:46.788Z,42.33
2022-12-08T20:33:19.473Z,47.60
2022-12-08T20:35:47.810Z,42.95
